createdAt,value
2022-10-14T00:00:19.682Z,12.6
2022-10-14T00:06:07.196Z,12.6
2022-10-14T00:11:34.358Z,12.6
2022-10-14T00:17:03.936Z,12.6
2022-10-14T00:22:36.592Z,12.6
2022-10-14T00:28:10.736Z,12.5
2022-10-14T00:34:01.382Z,12.5
2022-10-14T00:39:13.662Z,12.6
2022-10-14T00:44:45.022Z,12.3
2022-10-14T00:50:19.786Z,12.4
2022-10-14T00:56:00.464Z,12.1
2022-10-14T01:01:24.971Z,11.9
2022-10-14T01:07:09.224Z,11.9
2022-10-14T01:12:41.939Z,11.9
2022-10-14T01:18:15.406Z,12
2022-10-14T01:23:57.382Z,12
2022-10-14T01:29:25.233Z,12.2
2022-10-14T01:35:05.246Z,12.1
2022-10-14T01:40:17.698Z,12.2
2022-10-14T01:46:03.673Z,12.3
2022-10-14T01:51:50.188Z,12.2
2022-10-14T01:57:20.542Z,11.8
2022-10-14T02:02:40.757Z,12
2022-10-14T02:08:11.892Z,12
2022-10-14T02:14:05.540Z,12.2
2022-10-14T02:19:38.739Z,12.3
2022-10-14T02:24:53.045Z,12.3
2022-10-14T02:30:16.771Z,12.2
2022-10-14T02:35:56.725Z,12.2
2022-10-14T02:41:45.181Z,12.2
2022-10-14T02:46:58.519Z,12.1
2022-10-14T02:52:46.467Z,12.1
2022-10-14T02:58:23.099Z,12.1
2022-10-14T03:03:58.939Z,12.1
2022-10-14T03:09:35.140Z,12.1
2022-10-14T03:14:54.591Z,12.1
2022-10-14T03:20:19.391Z,12.1
2022-10-14T03:26:13.143Z,12.1
2022-10-14T03:31:35.763Z,12.1
2022-10-14T03:37:04.804Z,12.1
2022-10-14T03:42:56.968Z,12.1
2022-10-14T03:48:23.941Z,12.1
2022-10-14T03:54:03.956Z,12.1
2022-10-14T03:59:37.941Z,12
2022-10-14T04:05:00.992Z,12
2022-10-14T04:10:40.287Z,12
2022-10-14T04:15:58.420Z,12
2022-10-14T04:21:46.120Z,12
2022-10-14T04:26:58.584Z,12.1
2022-10-14T04:32:33.005Z,12.1
2022-10-14T04:38:12.500Z,12.1
2022-10-14T04:43:59.917Z,12.1
2022-10-14T04:49:19.561Z,12.1
2022-10-14T04:54:42.495Z,12.1
2022-10-14T05:00:35.052Z,12.1
2022-10-14T05:06:00.302Z,12.1
2022-10-14T05:11:25.601Z,12.1
2022-10-14T05:17:08.687Z,12.1
2022-10-14T05:22:57.500Z,12.1
2022-10-14T05:28:17.058Z,12.1
2022-10-14T05:33:57.538Z,12.1
2022-10-14T05:39:36.863Z,12.1
2022-10-14T05:44:59.458Z,12.2
2022-10-14T05:50:20.780Z,12.2
2022-10-14T05:56:09.714Z,12.1
2022-10-14T06:01:23.907Z,12.1
2022-10-14T06:07:09.406Z,12.2
2022-10-14T06:12:44.954Z,12.2
2022-10-14T06:18:13.012Z,12.3
2022-10-14T06:24:02.199Z,12.2
2022-10-14T06:29:10.881Z,12.3
2022-10-14T06:34:44.259Z,12.3
2022-10-14T06:40:42.649Z,12.4
2022-10-14T06:45:59.919Z,12.4
2022-10-14T06:51:48.404Z,12.4
2022-10-14T06:57:05.872Z,12.4
2022-10-14T07:02:57.249Z,12.4
2022-10-14T07:08:25.043Z,12.5
2022-10-14T07:13:47.555Z,12.5
2022-10-14T07:19:25.496Z,12.6
2022-10-14T07:24:46.566Z,12.6
2022-10-14T07:30:18.267Z,12.8
2022-10-14T07:36:10.293Z,12.8
2022-10-14T07:41:36.278Z,12.9
2022-10-14T07:46:59.917Z,13
2022-10-14T07:52:43.775Z,12.9
2022-10-14T07:58:28.172Z,12.8
2022-10-14T08:03:56.142Z,13
2022-10-14T08:09:35.005Z,13.1
2022-10-14T08:14:55.995Z,13.6
2022-10-14T08:20:45.902Z,13.7
2022-10-14T08:25:59.450Z,13.6
2022-10-14T08:31:49.118Z,14
2022-10-14T08:36:59.396Z,14
2022-10-14T08:42:40.272Z,14.1
2022-10-14T08:48:26.043Z,14.1
2022-10-14T08:53:46.986Z,14.3
2022-10-14T08:59:35.117Z,14.3
2022-10-14T09:05:12.297Z,14.5
2022-10-14T09:10:35.415Z,14.7
2022-10-14T09:16:08.582Z,14.5
2022-10-14T09:21:54.835Z,14.4
2022-10-14T09:27:22.757Z,14.5
2022-10-14T09:33:06.823Z,14.5
2022-10-14T09:38:22.517Z,14.4
2022-10-14T09:43:55.603Z,14.3
2022-10-14T09:49:34.826Z,14.4
2022-10-14T09:55:20.009Z,14.3
2022-10-14T10:00:52.115Z,14.5
2022-10-14T10:06:28.789Z,14.4
2022-10-14T10:11:47.006Z,14.4
2022-10-14T10:17:33.284Z,14.5
2022-10-14T10:22:50.949Z,14.7
2022-10-14T10:28:51.270Z,15
2022-10-14T10:34:03.876Z,15.1
2022-10-14T10:39:54.870Z,15.2
2022-10-14T10:45:12.076Z,15.1
2022-10-14T10:50:47.999Z,15.2
2022-10-14T10:56:39.895Z,15.2
2022-10-14T11:02:07.501Z,15.3
2022-10-14T11:07:34.357Z,15.3
2022-10-14T11:13:04.863Z,15.3
2022-10-14T11:18:56.429Z,14.8
2022-10-14T11:24:09.443Z,14.8
2022-10-14T11:29:51.634Z,14.8
2022-10-14T11:35:23.825Z,15
2022-10-14T11:40:57.945Z,15.1
2022-10-14T11:46:32.099Z,15.4
2022-10-14T11:52:22.856Z,15.6
2022-10-14T11:57:40.572Z,15.6
2022-10-14T12:03:14.782Z,15.7
2022-10-14T12:08:52.540Z,15.8
2022-10-14T12:14:36.439Z,15.7
2022-10-14T12:20:03.540Z,15.9
2022-10-14T12:25:51.009Z,15.7
2022-10-14T12:31:28.037Z,15.8
2022-10-14T12:36:42.592Z,15.8
2022-10-14T12:42:30.253Z,15.7
2022-10-14T12:47:50.688Z,15.7
2022-10-14T12:53:44.210Z,15.8
2022-10-14T12:59:01.137Z,15.9
2022-10-14T13:04:57.250Z,15.8
2022-10-14T13:10:13.245Z,15.8
2022-10-14T13:15:44.666Z,15.8
2022-10-14T13:21:31.838Z,15.9
2022-10-14T13:26:59.374Z,16
2022-10-14T13:32:32.004Z,15.9
2022-10-14T13:38:11.305Z,15.8
2022-10-14T13:43:52.150Z,15.8
2022-10-14T13:49:27.230Z,15.7
2022-10-14T13:54:53.968Z,15.6
2022-10-14T14:00:40.486Z,15.6
2022-10-14T14:06:05.386Z,15.6
2022-10-14T14:11:32.952Z,15.5
2022-10-14T14:17:24.668Z,15.5
2022-10-14T14:22:37.755Z,15.5
2022-10-14T14:28:12.616Z,15.5
2022-10-14T14:33:52.121Z,15.4
2022-10-14T14:39:26.480Z,15.4
2022-10-14T14:45:03.507Z,15.4
2022-10-14T14:50:31.730Z,15.3
2022-10-14T14:56:10.402Z,15.2
2022-10-14T15:01:38.157Z,15.1
2022-10-14T15:07:24.616Z,15.1
2022-10-14T15:13:01.521Z,15.1
2022-10-14T15:18:25.022Z,15.1
2022-10-14T15:24:05.565Z,15
2022-10-14T15:29:41.708Z,15
2022-10-14T15:35:02.310Z,15
2022-10-14T15:40:47.232Z,15
2022-10-14T15:46:14.323Z,15
2022-10-14T15:51:57.522Z,15
2022-10-14T15:57:39.810Z,15
2022-10-14T16:02:59.922Z,15
2022-10-14T16:08:51.127Z,15.1
2022-10-14T16:14:12.703Z,15.1
2022-10-14T16:19:53.400Z,15.1
2022-10-14T16:25:17.822Z,15
2022-10-14T16:30:46.807Z,15.1
2022-10-14T16:36:34.834Z,15.1
2022-10-14T16:42:03.457Z,14.9
2022-10-14T16:47:53.842Z,14.7
2022-10-14T16:53:22.134Z,14.6
2022-10-14T16:58:44.140Z,14.5
2022-10-14T17:04:26.479Z,14.4
2022-10-14T17:10:02.595Z,14.3
2022-10-14T17:15:41.232Z,14.4
2022-10-14T17:21:08.461Z,14.3
2022-10-14T17:26:54.792Z,14.3
2022-10-14T17:32:17.242Z,14.3
2022-10-14T17:37:46.015Z,14.3
2022-10-14T17:43:23.924Z,14.3
2022-10-14T17:49:03.419Z,14.5
2022-10-14T17:54:26.801Z,14.5
2022-10-14T18:00:13.363Z,14.6
2022-10-14T18:05:52.154Z,14.6
2022-10-14T18:11:24.855Z,14.4
2022-10-14T18:16:48.382Z,14.2
2022-10-14T18:22:29.395Z,14.1
2022-10-14T18:27:49.247Z,13.9
2022-10-14T18:33:24.388Z,13.9
2022-10-14T18:39:03.507Z,13.9
2022-10-14T18:44:58.696Z,13.9
2022-10-14T18:50:28.396Z,13.9
2022-10-14T18:55:58.143Z,13.9
2022-10-14T19:01:24.084Z,14
2022-10-14T19:06:58.619Z,14
2022-10-14T19:12:25.042Z,14.1
2022-10-14T19:18:24.334Z,14.2
2022-10-14T19:23:51.861Z,14.2
2022-10-14T19:29:32.226Z,14.3
2022-10-14T19:35:04.644Z,14.3
2022-10-14T19:40:25.398Z,14.3
2022-10-14T19:45:57.474Z,14.2
2022-10-14T19:51:51.662Z,14.2
2022-10-14T19:57:16.546Z,14.3
2022-10-14T20:02:50.749Z,14.2
2022-10-14T20:08:25.538Z,14.1
2022-10-14T20:13:52.697Z,14
2022-10-14T20:19:33.962Z,14
2022-10-14T20:24:55.376Z,14
2022-10-14T20:30:25.774Z,14
2022-10-14T20:36:10.850Z,14
2022-10-14T20:41:35.301Z,14
2022-10-14T20:47:27.549Z,14
2022-10-14T20:53:01.684Z,14.1
2022-10-14T20:58:21.088Z,14.1
2022-10-14T21:04:15.532Z,14.1
2022-10-14T21:09:48.484Z,14.1
2022-10-14T21:15:25.802Z,14.1
2022-10-14T21:20:35.267Z,14.1
2022-10-14T21:26:11.529Z,14.1
2022-10-14T21:31:45.239Z,14.1
2022-10-14T21:37:35.173Z,14.2
2022-10-14T21:43:12.438Z,14.2
2022-10-14T21:48:43.050Z,14.2
2022-10-14T21:54:01.940Z,14.3
2022-10-14T21:59:37.511Z,14.3
2022-10-14T22:05:32.793Z,14.3
2022-10-14T22:10:50.825Z,14.3
2022-10-14T22:16:15.485Z,14.3
2022-10-14T22:22:02.775Z,14.3
2022-10-14T22:27:31.080Z,14.3
2022-10-14T22:33:16.081Z,14.3
2022-10-14T22:38:40.242Z,14.3
2022-10-14T22:44:22.596Z,14.3
2022-10-14T22:49:45.615Z,14.4
2022-10-14T22:55:30.788Z,14.4
2022-10-14T23:01:01.532Z,14.4
2022-10-14T23:06:44.351Z,14.4
2022-10-14T23:12:24.143Z,14.4
2022-10-14T23:17:45.608Z,14.4
2022-10-14T23:23:18.463Z,14.4
2022-10-14T23:28:54.932Z,14.4
2022-10-14T23:34:22.476Z,14.3
2022-10-14T23:40:09.257Z,14.3
2022-10-14T23:45:44.923Z,14.3
2022-10-14T23:51:18.283Z,14.3
2022-10-14T23:56:38.822Z,14.4
